logo
Rechercher aéroport 
image banner adimage banner adimage banner ad
image banner ad

SCLK - Lago Colico

Situé à Cunco, Chile

ICAO - SCLK, IATA -

Données fournies par Airmate  

Information générale

Coordonnées: S39°3'26" W72°4'34"
Élévation : 1148 feet MSL.
Variation magnétique : 6° East
Voir autres Aéroports à Araucanía

Données opérationnelles

Special qualification required
Heure actuelle UTC:
Heure actuelle locale:
Météo à : SCQP - La Araucania ( 52 km )
METAR: SCQP 152000Z VRB02KT 4000 BR OVC004 04/04 Q1021
TAF: TAF SCQP 151648Z 1518/1618 VRB02KT 9999 SCT010 BKN020 OVC100 TX07/1519Z TN06/1612Z BECMG 1520/1522 09006KT BECMG 1522/1524 27005KT BECMG 1600/1602 03006KT BKN020 OVC030 TEMPO 1602/1608 8000 RA
Voir NOTAMs / SUP AIP / TFR affectant cet aéroport [VIEW]
Fréquences de communication: [VIEW]

Pistes:

Identifiant RWYQFULongueur (ft)Largeur (ft)SurfaceLDA (ft)
11115°249366DIRT
29295°249366DIRT

Coordonnées de l'aéroport

Adresse: Cunco Chile

Vue satellite de SCLK